»·PEaware :: N102MR KCNO-KSAN

N102MR :: KCNO-KSAN

FLIGHT INFORMATION

Flight Status: Arrived
Operator: Privately registered:
United States
More flights under this callsign
Pilot: Michael R. (16974)
Aircraft: CESSNA 172 SKYHAWK
(C172)
More flights by this aircraft type
Origin: KCNO Chino
United States
Destination: KSAN San Diego Intl-Lindbergh
United States
More flights between these airports :: More routes between these airports
Route: +
File this flight plan on PilotEdge
Remarks:
Altitude:
(Current/Filed)
5,500ft
Speed:
(Current/Filed)
0kts
Departed: 30-Nov-17 09:54 PM
Arrived: 30-Nov-17 10:45 PM
Distance/Time
Traveled:
0nm/0:51
Distance/Time
To Go:
Arrived

Flight Plot

Page will automatically refresh every two minutes.


Map Options




Map Legend


Flown Route
Filed Route
Departure Airport
Arrival Airport
Navaid (VOR, NDB)
Fix

Horizontal Profiles

Position Reports

Time Latitude Longitude Heading Altitude Ground
Speed
30-Nov-17 21:50 33.977653 -117.636151 127 633ft 0kts
30-Nov-17 21:51 33.977551 -117.636012 136 633ft 6kts
30-Nov-17 21:52 33.977086 -117.636046 52 632ft 9kts
30-Nov-17 21:53 33.976996 -117.631037 68 638ft 9kts
30-Nov-17 21:54 33.976628 -117.630830 179 637ft 0kts
30-Nov-17 21:55 33.976628 -117.630830 179 637ft 0kts
30-Nov-17 21:56 33.976628 -117.630830 179 637ft 0kts
30-Nov-17 21:57 33.976628 -117.630830 179 637ft 0kts
30-Nov-17 21:58 33.975856 -117.631770 269 635ft 0kts
30-Nov-17 21:59 33.975729 -117.644695 265 968ft 74kts
30-Nov-17 22:00 33.961647 -117.652988 95 1871ft 87kts
30-Nov-17 22:01 33.961159 -117.621943 110 2658ft 101kts
30-Nov-17 22:02 33.947739 -117.590639 119 3263ft 111kts
30-Nov-17 22:03 33.931928 -117.558890 121 3939ft 110kts
30-Nov-17 22:04 33.914657 -117.529504 145 4635ft 106kts
30-Nov-17 22:05 33.891522 -117.509440 147 5323ft 103kts
30-Nov-17 22:06 33.866475 -117.488380 146 5508ft 113kts
30-Nov-17 22:07 33.840737 -117.466796 147 5517ft 112kts
30-Nov-17 22:08 33.814967 -117.445229 147 5505ft 113kts
30-Nov-17 22:09 33.789117 -117.423616 147 5499ft 113kts
30-Nov-17 22:10 33.764732 -117.403242 147 5506ft 112kts
30-Nov-17 22:11 33.739081 -117.381802 147 5509ft 113kts
30-Nov-17 22:12 33.713255 -117.360279 147 5509ft 113kts
30-Nov-17 22:13 33.687581 -117.338883 148 5507ft 113kts
30-Nov-17 22:14 33.661753 -117.317371 148 5507ft 113kts
30-Nov-17 22:15 33.637251 -117.296976 148 5525ft 112kts
30-Nov-17 22:16 33.611585 -117.275630 148 5526ft 113kts
30-Nov-17 22:17 33.585834 -117.254228 148 5526ft 113kts
30-Nov-17 22:18 33.560199 -117.232973 145 5523ft 111kts
30-Nov-17 22:19 33.538941 -117.215309 146 5526ft 111kts
30-Nov-17 22:20 33.509301 -117.190709 146 5541ft 110kts
30-Nov-17 22:21 33.484015 -117.169752 146 5544ft 111kts
30-Nov-17 22:22 33.460199 -117.160203 170 5545ft 110kts
30-Nov-17 22:23 33.424566 -117.152391 171 5526ft 112kts
30-Nov-17 22:24 33.393774 -117.145826 171 5526ft 112kts
30-Nov-17 22:25 33.368062 -117.140383 171 5526ft 114kts
30-Nov-17 22:26 33.336440 -117.133708 171 5527ft 116kts
30-Nov-17 22:27 33.304682 -117.127004 171 5528ft 116kts
30-Nov-17 22:28 33.273004 -117.120326 171 5529ft 116kts
30-Nov-17 22:29 33.241285 -117.113685 169 5534ft 113kts
30-Nov-17 22:30 33.210958 -117.106982 169 5515ft 110kts
30-Nov-17 22:31 33.181488 -117.120892 210 5119ft 123kts
30-Nov-17 22:32 33.151712 -117.141983 211 4566ft 127kts
30-Nov-17 22:33 33.121234 -117.163810 211 3862ft 122kts
30-Nov-17 22:34 33.092926 -117.184083 211 3158ft 118kts
30-Nov-17 22:35 33.067511 -117.202259 210 2982ft 98kts
30-Nov-17 22:36 33.043253 -117.219545 211 3490ft 103kts
30-Nov-17 22:37 33.015935 -117.239336 220 3522ft 117kts
30-Nov-17 22:38 32.994552 -117.267328 215 3523ft 114kts
30-Nov-17 22:39 32.964992 -117.280310 191 3523ft 114kts
30-Nov-17 22:40 32.933215 -117.278516 169 3523ft 116kts
30-Nov-17 22:41 32.901605 -117.270164 167 3526ft 116kts
30-Nov-17 22:42 32.870134 -117.261421 167 3524ft 117kts
30-Nov-17 22:43 32.838535 -117.251746 153 3521ft 117kts
30-Nov-17 22:44 32.810726 -117.236045 154 3105ft 100kts
30-Nov-17 22:45 32.785153 -117.221193 154 2407ft 104kts
30-Nov-17 22:46 32.758958 -117.205958 154 1710ft 106kts
30-Nov-17 22:47 32.742000 -117.182942 102 1355ft 86kts
30-Nov-17 22:48 32.735997 -117.159401 134 1337ft 77kts
30-Nov-17 22:49 32.730601 -117.177622 290 110ft 71kts
30-Nov-17 22:50 32.733791 -117.188110 11 17ft 0kts
30-Nov-17 22:51 32.734375 -117.188298 313 17ft 13kts
30-Nov-17 22:52 32.735264 -117.189312 198 17ft 0kts
30-Nov-17 22:53 32.735264 -117.189312 198 17ft 0kts
30-Nov-17 22:54 32.735264 -117.189312 198 17ft 0kts
30-Nov-17 22:55 32.735264 -117.189312 198 17ft 0kts
30-Nov-17 22:56 32.735264 -117.189312 198 17ft 0kts
30-Nov-17 22:57 32.735264 -117.189312 198 17ft 0kts
30-Nov-17 22:58 33.977653 -117.636152 127 633ft 0kts
30-Nov-17 22:59 33.977653 -117.636151 127 633ft 0kts
30-Nov-17 23:00 33.977653 -117.636151 127 633ft 0kts
30-Nov-17 23:01 33.977653 -117.636151 127 633ft 0kts
30-Nov-17 23:02 33.977653 -117.636151 127 633ft 0kts
30-Nov-17 23:03 33.977653 -117.636151 127 633ft 0kts
30-Nov-17 23:04 33.977653 -117.636151 127 633ft 0kts

Navigation Log

Ident Type
1. KCNO Airport
2. KSAN Airport